Terminal Aerodrome Forecast
Issued by NWS Albany, NY

Home | Current Version | Previous Version | Text Only | Print | Product List | Glossary On
Versions: 1 2 3 4 5 6 7 8 9 10 11 12 13 14
000
FTUS41 KALY 192300
TAFALB
TAF
KALB 192337Z 2000/2024 VRB03KT P6SM SKC
     FM200800 17007KT P6SM OVC030
     FM201500 18013G23KT P6SM BKN035=

USA.gov is the U.S. government's official web portal to all federal, state and local government web resources and services.